createdAt,value
2022-08-21T03:34:11.169Z,99251.88
2022-08-21T03:36:38.302Z,99248.31
2022-08-21T03:39:05.236Z,99257.22
2022-08-21T03:41:32.272Z,99264.06
2022-08-21T03:44:00.139Z,99254.91
2022-08-21T03:46:26.906Z,99271.06
2022-08-21T03:48:53.773Z,99282.47
2022-08-21T03:51:20.922Z,99282.28
2022-08-21T03:53:47.746Z,99283.88
2022-08-21T03:56:14.650Z,99283.81
2022-08-21T03:58:41.832Z,99290.28
2022-08-21T04:01:08.996Z,99285.81
2022-08-21T04:03:37.412Z,99291.66
2022-08-21T04:06:05.051Z,99287.50
2022-08-21T04:08:31.889Z,99291.41
2022-08-21T04:10:59.564Z,99287.34
2022-08-21T04:13:29.032Z,99296.84
2022-08-21T04:15:56.939Z,99293.94
2022-08-21T04:18:23.837Z,99284.19
2022-08-21T04:20:53.724Z,99284.31
2022-08-21T04:23:23.997Z,99286.19
2022-08-21T04:25:52.901Z,99282.53
2022-08-21T04:28:19.812Z,99289.47
2022-08-21T04:30:46.930Z,99284.47
2022-08-21T04:33:13.965Z,99287.47
2022-08-21T04:35:40.828Z,99279.19
2022-08-21T04:38:07.635Z,99276.84
2022-08-21T04:40:34.684Z,99263.56
2022-08-21T04:43:08.657Z,99268.69
2022-08-21T04:45:39.686Z,99259.00
2022-08-21T04:48:13.911Z,99263.13
2022-08-21T04:51:07.372Z,99264.44
2022-08-21T04:53:42.998Z,99262.75
2022-08-21T04:56:14.257Z,99269.16
2022-08-21T04:58:42.817Z,99268.59
2022-08-21T05:01:14.629Z,99272.72
2022-08-21T05:03:42.152Z,99267.03
2022-08-21T05:06:13.094Z,99257.78
2022-08-21T05:08:41.279Z,99253.22
2022-08-21T05:11:08.141Z,99257.09
2022-08-21T05:13:36.687Z,99256.88
2022-08-21T05:16:04.279Z,99255.81
2022-08-21T05:18:31.119Z,99249.81
2022-08-21T05:20:58.087Z,99253.09
2022-08-21T05:23:25.971Z,99252.25
2022-08-21T05:25:56.903Z,99245.34
2022-08-21T05:28:24.558Z,99244.59
2022-08-21T05:30:54.256Z,99244.16
2022-08-21T05:33:21.070Z,99234.38
2022-08-21T05:35:51.919Z,99238.50
2022-08-21T05:38:19.422Z,99228.47
2022-08-21T05:40:47.480Z,99233.53
2022-08-21T05:43:14.499Z,99244.78
2022-08-21T05:45:43.770Z,99251.34
2022-08-21T05:48:24.033Z,99253.00
2022-08-21T05:50:52.727Z,99255.63
2022-08-21T05:53:22.419Z,99263.75
2022-08-21T05:55:49.698Z,99255.31
2022-08-21T05:58:19.532Z,99259.34
2022-08-21T06:00:48.197Z,99272.63
2022-08-21T06:03:26.944Z,99269.91
2022-08-21T06:05:54.401Z,99266.59
2022-08-21T06:08:22.402Z,99267.84
2022-08-21T06:10:51.632Z,99268.31
2022-08-21T06:13:20.614Z,99266.81
2022-08-21T06:15:47.710Z,99265.97
2022-08-21T06:18:15.035Z,99261.00
2022-08-21T06:20:42.764Z,99267.47
2022-08-21T06:23:10.394Z,99269.31
2022-08-21T06:25:37.393Z,99271.53
2022-08-21T06:28:09.370Z,99265.69
2022-08-21T06:30:38.297Z,99257.00
2022-08-21T06:33:05.186Z,99253.03
2022-08-21T06:35:32.040Z,99253.97
2022-08-21T06:37:59.916Z,99247.47
2022-08-21T06:40:29.986Z,99243.03
2022-08-21T06:42:59.428Z,99250.94
2022-08-21T06:45:32.170Z,99249.16
2022-08-21T06:47:59.996Z,99246.31
2022-08-21T06:50:26.735Z,99246.53
2022-08-21T06:53:01.747Z,99242.63
2022-08-21T06:55:29.306Z,99239.03
2022-08-21T06:57:56.172Z,99243.38
2022-08-21T07:00:23.792Z,99235.78
2022-08-21T07:02:50.546Z,99240.16
2022-08-21T07:05:18.810Z,99238.13
2022-08-21T07:07:46.689Z,99233.63
2022-08-21T07:10:22.753Z,99238.34
2022-08-21T07:12:52.563Z,99237.53
2022-08-21T07:15:27.882Z,99227.47
2022-08-21T07:17:54.920Z,99229.44
2022-08-21T07:20:21.683Z,99223.06
2022-08-21T07:22:48.466Z,99228.41
2022-08-21T07:25:15.300Z,99218.59
2022-08-21T07:27:42.048Z,99221.63
2022-08-21T07:30:09.359Z,99213.66
2022-08-21T07:32:36.123Z,99215.28
2022-08-21T07:35:03.964Z,99216.56
2022-08-21T07:37:30.675Z,99220.63
2022-08-21T07:39:57.673Z,99217.72
2022-08-21T07:42:24.672Z,99214.91
2022-08-21T07:44:55.307Z,99219.47
2022-08-21T07:47:41.898Z,99216.00
2022-08-21T07:50:12.076Z,99214.31
2022-08-21T07:52:40.010Z,99221.72
2022-08-21T07:55:08.024Z,99230.22
2022-08-21T07:57:34.911Z,99218.97
2022-08-21T08:00:02.030Z,99217.09
2022-08-21T08:02:39.310Z,99211.09
2022-08-21T08:05:08.965Z,99205.19
2022-08-21T08:07:36.405Z,99199.81
2022-08-21T08:10:04.743Z,99197.19
2022-08-21T08:12:31.655Z,99195.34
2022-08-21T08:14:59.689Z,99203.69
2022-08-21T08:17:27.044Z,99205.00
2022-08-21T08:19:54.797Z,99199.06
2022-08-21T08:22:24.947Z,99198.69
2022-08-21T08:24:53.539Z,99200.00
2022-08-21T08:27:21.489Z,99202.50
2022-08-21T08:29:48.576Z,99198.66
2022-08-21T08:32:16.219Z,99195.22
2022-08-21T08:34:42.969Z,99192.44
2022-08-21T08:37:10.946Z,99190.25
2022-08-21T08:39:39.019Z,99188.78
2022-08-21T08:42:32.850Z,99183.44
2022-08-21T08:45:07.302Z,99182.34
2022-08-21T08:47:38.450Z,99183.75
2022-08-21T08:50:13.840Z,99188.09
2022-08-21T08:52:49.078Z,99176.09
2022-08-21T08:55:25.357Z,99176.63
2022-08-21T08:57:55.510Z,99186.25
2022-08-21T09:00:23.974Z,99179.47
2022-08-21T09:02:55.432Z,99169.81
2022-08-21T09:05:30.341Z,99175.91
2022-08-21T09:08:20.665Z,99177.28
2022-08-21T09:11:11.625Z,99177.78
2022-08-21T09:13:38.819Z,99167.44
2022-08-21T09:16:43.178Z,99179.13
2022-08-21T09:19:24.980Z,99168.69
2022-08-21T09:22:06.103Z,99163.44
2022-08-21T09:24:38.350Z,99172.53
2022-08-21T09:27:11.780Z,99170.47
2022-08-21T09:29:41.830Z,99166.53
2022-08-21T09:32:20.660Z,99161.72
2022-08-21T09:35:06.647Z,99166.41
2022-08-21T09:37:36.745Z,99165.00
2022-08-21T09:40:28.894Z,99162.88
2022-08-21T09:42:59.027Z,99162.53
2022-08-21T09:45:26.201Z,99152.50
2022-08-21T09:47:53.347Z,99153.53
2022-08-21T09:50:27.861Z,99154.50
2022-08-21T09:53:01.308Z,99152.88
2022-08-21T09:55:54.991Z,99155.81
2022-08-21T09:58:21.995Z,99159.88
2022-08-21T10:01:01.780Z,99150.84
2022-08-21T10:03:28.648Z,99166.25
2022-08-21T10:06:00.443Z,99155.91
2022-08-21T10:08:29.950Z,99155.94
2022-08-21T10:11:05.860Z,99150.44
2022-08-21T10:13:52.927Z,99158.16
2022-08-21T10:16:58.046Z,99152.66
2022-08-21T10:19:44.720Z,99151.38
2022-08-21T10:22:23.789Z,99144.78
2022-08-21T10:25:02.957Z,99142.69
2022-08-21T10:27:35.760Z,99144.22
2022-08-21T10:30:20.594Z,99144.75
2022-08-21T10:33:16.992Z,99147.34
2022-08-21T10:35:56.428Z,99139.72
2022-08-21T10:38:55.362Z,99140.81
2022-08-21T10:42:06.251Z,99143.00
2022-08-21T10:44:54.257Z,99141.91
2022-08-21T10:47:45.948Z,99142.00
2022-08-21T10:50:31.031Z,99141.13
2022-08-21T10:53:35.312Z,99142.97
2022-08-21T10:56:36.726Z,99147.09
2022-08-21T10:59:19.423Z,99138.09
2022-08-21T11:02:04.942Z,99132.81
2022-08-21T11:04:49.463Z,99135.38
2022-08-21T11:07:26.471Z,99141.50
2022-08-21T11:10:02.094Z,99130.16
2022-08-21T11:12:41.896Z,99131.44
2022-08-21T11:15:32.917Z,99133.34
2022-08-21T11:18:20.169Z,99126.03
2022-08-21T11:21:10.319Z,99117.97
2022-08-21T11:23:50.471Z,99129.44
2022-08-21T11:26:38.197Z,99135.97
2022-08-21T11:29:18.085Z,99135.66
2022-08-21T11:32:08.837Z,99117.34
2022-08-21T11:35:14.275Z,99128.81
2022-08-21T11:37:51.969Z,99128.59
2022-08-21T11:40:37.203Z,99131.53
2022-08-21T11:43:29.221Z,99130.28
2022-08-21T11:46:00.899Z,99138.38
2022-08-21T11:48:52.679Z,99139.31
2022-08-21T11:51:27.947Z,99127.84
2022-08-21T11:54:07.476Z,99122.03
2022-08-21T11:56:34.317Z,99120.56
2022-08-21T11:59:05.965Z,99124.31
2022-08-21T12:01:41.802Z,99113.69
2022-08-21T12:04:19.612Z,99113.75
2022-08-21T12:06:46.555Z,99103.63
2022-08-21T12:09:25.376Z,99113.50
2022-08-21T12:12:25.049Z,99102.97
2022-08-21T12:15:04.745Z,99107.97
2022-08-21T12:17:40.709Z,99097.97
2022-08-21T12:20:22.776Z,99091.81
2022-08-21T12:22:54.453Z,99095.06
2022-08-21T12:25:23.318Z,99094.47
2022-08-21T12:28:03.036Z,99100.03
2022-08-21T12:30:29.905Z,99088.44
2022-08-21T12:32:59.030Z,99086.69
2022-08-21T12:35:50.281Z,99086.28
2022-08-21T12:38:27.537Z,99082.03
2022-08-21T12:41:06.912Z,99082.13
2022-08-21T12:43:43.447Z,99084.25
2022-08-21T12:46:21.377Z,99087.31
2022-08-21T12:49:26.848Z,99088.31
2022-08-21T12:52:18.011Z,99086.47
2022-08-21T12:54:45.730Z,99092.63
2022-08-21T12:57:31.100Z,99085.28
2022-08-21T13:00:13.145Z,99088.75
2022-08-21T13:02:47.460Z,99089.00
2022-08-21T13:05:17.391Z,99087.81
2022-08-21T13:07:53.278Z,99085.69
2022-08-21T13:10:40.255Z,99092.41
2022-08-21T13:13:13.339Z,99083.00
2022-08-21T13:15:47.741Z,99087.44
2022-08-21T13:18:25.319Z,99084.38
2022-08-21T13:20:53.702Z,99084.34
2022-08-21T13:23:29.421Z,99092.38
2022-08-21T13:25:57.713Z,99079.34
2022-08-21T13:28:34.095Z,99077.19
2022-08-21T13:31:02.662Z,99077.72
2022-08-21T13:33:37.399Z,99078.00
2022-08-21T13:36:27.129Z,99080.50
2022-08-21T13:38:55.387Z,99080.22
2022-08-21T13:41:35.595Z,99081.63
2022-08-21T13:44:05.817Z,99083.78
2022-08-21T13:46:37.658Z,99079.63
2022-08-21T13:49:07.093Z,99080.44
2022-08-21T13:51:34.817Z,99089.78
2022-08-21T13:54:01.893Z,99092.78
2022-08-21T13:56:32.508Z,99093.22
2022-08-21T13:59:02.387Z,99091.00
2022-08-21T14:01:33.046Z,99086.75
2022-08-21T14:04:05.801Z,99079.50
2022-08-21T14:06:38.669Z,99092.69
2022-08-21T14:09:22.744Z,99088.09
2022-08-21T14:11:49.959Z,99093.75
2022-08-21T14:14:46.510Z,99101.09
2022-08-21T14:17:34.783Z,99098.72
2022-08-21T14:20:01.892Z,99093.63
2022-08-21T14:22:39.447Z,99089.69
2022-08-21T14:25:07.863Z,99100.22
2022-08-21T14:27:38.038Z,99093.81
2022-08-21T14:30:19.180Z,99099.53
2022-08-21T14:32:46.754Z,99097.00
2022-08-21T14:35:14.778Z,99088.47
2022-08-21T14:37:46.547Z,99087.13
2022-08-21T14:40:18.216Z,99094.78
2022-08-21T14:42:46.005Z,99095.88
2022-08-21T14:45:21.229Z,99093.63
2022-08-21T14:47:51.655Z,99089.91
2022-08-21T14:50:18.748Z,99097.63
2022-08-21T14:52:46.691Z,99100.22
2022-08-21T14:55:15.475Z,99101.63
2022-08-21T14:57:50.977Z,99103.69
2022-08-21T15:00:23.959Z,99102.66
2022-08-21T15:02:54.011Z,99106.00
2022-08-21T15:05:26.814Z,99107.13
2022-08-21T15:07:59.998Z,99108.63
2022-08-21T15:10:27.215Z,99104.97
2022-08-21T15:12:54.282Z,99100.88
2022-08-21T15:15:21.174Z,99104.75
2022-08-21T15:17:48.692Z,99106.84
2022-08-21T15:20:16.085Z,99106.63
2022-08-21T15:22:47.845Z,99097.63
2022-08-21T15:25:15.199Z,99100.09
2022-08-21T15:27:42.134Z,99101.97
2022-08-21T15:30:09.867Z,99104.03
2022-08-21T15:32:36.677Z,99108.63
2022-08-21T15:35:04.420Z,99103.94
2022-08-21T15:37:31.383Z,99110.56
2022-08-21T15:39:58.326Z,99108.22
2022-08-21T15:42:27.909Z,99119.91
2022-08-21T15:44:56.899Z,99103.50
2022-08-21T15:47:32.780Z,99116.38
2022-08-21T15:49:59.665Z,99109.81
2022-08-21T15:52:26.732Z,99110.38
2022-08-21T15:54:54.339Z,99104.81
2022-08-21T15:57:24.459Z,99115.03
2022-08-21T16:00:09.014Z,99113.88
2022-08-21T16:02:40.799Z,99111.66
2022-08-21T16:05:08.579Z,99113.38
2022-08-21T16:07:35.397Z,99120.41
2022-08-21T16:10:04.352Z,99122.56
2022-08-21T16:12:38.272Z,99124.13
2022-08-21T16:15:08.883Z,99127.31
2022-08-21T16:17:38.160Z,99124.44
2022-08-21T16:20:09.474Z,99123.63
2022-08-21T16:22:43.914Z,99120.34
2022-08-21T16:25:13.405Z,99124.53
2022-08-21T16:27:42.234Z,99129.97
2022-08-21T16:30:11.034Z,99133.31
2022-08-21T16:32:37.880Z,99133.41
2022-08-21T16:35:05.614Z,99131.31
2022-08-21T16:37:32.795Z,99131.13
2022-08-21T16:39:59.815Z,99130.03
2022-08-21T16:42:27.282Z,99133.16
2022-08-21T16:44:55.331Z,99143.78
2022-08-21T16:47:26.729Z,99133.03
2022-08-21T16:49:54.901Z,99142.63
2022-08-21T16:52:21.761Z,99147.09
2022-08-21T16:54:48.574Z,99143.44
2022-08-21T16:57:15.800Z,99150.25
2022-08-21T16:59:42.847Z,99143.03
2022-08-21T17:02:36.025Z,99149.50
2022-08-21T17:05:03.713Z,99151.03
2022-08-21T17:07:36.444Z,99152.44
2022-08-21T17:10:05.812Z,99152.78
2022-08-21T17:12:33.557Z,99164.78
2022-08-21T17:15:06.104Z,99175.94
2022-08-21T17:17:34.903Z,99172.53
2022-08-21T17:20:02.157Z,99176.28
2022-08-21T17:22:29.140Z,99188.22
2022-08-21T17:24:56.173Z,99190.25
2022-08-21T17:27:28.112Z,99193.78
2022-08-21T17:29:57.523Z,99196.78
2022-08-21T17:32:24.997Z,99201.63
2022-08-21T17:34:52.183Z,99208.88
2022-08-21T17:37:19.427Z,99207.31
2022-08-21T17:39:46.273Z,99208.41
2022-08-21T17:42:14.481Z,99205.81
2022-08-21T17:44:43.924Z,99212.34
2022-08-21T17:47:11.851Z,99209.94
2022-08-21T17:49:39.026Z,99210.03
2022-08-21T17:52:07.675Z,99220.06
2022-08-21T17:54:36.481Z,99225.56
2022-08-21T17:57:04.750Z,99216.91
2022-08-21T17:59:32.417Z,99221.16
2022-08-21T18:02:01.707Z,99198.53
2022-08-21T18:04:29.631Z,99207.25
2022-08-21T18:06:57.072Z,99208.84
2022-08-21T18:09:28.128Z,99213.50
2022-08-21T18:12:00.381Z,99207.00
2022-08-21T18:14:34.200Z,99210.34
2022-08-21T18:17:01.294Z,99209.78
2022-08-21T18:19:28.393Z,99216.50
2022-08-21T18:21:58.134Z,99209.84
2022-08-21T18:24:27.302Z,99215.69
2022-08-21T18:26:54.689Z,99213.28
2022-08-21T18:29:22.395Z,99212.59
2022-08-21T18:31:49.789Z,99208.53
2022-08-21T18:34:20.351Z,99217.91
2022-08-21T18:36:48.195Z,99212.94
2022-08-21T18:39:35.463Z,99210.53
2022-08-21T18:42:05.344Z,99206.78
2022-08-21T18:44:32.531Z,99210.59
2022-08-21T18:47:11.412Z,99211.78
2022-08-21T18:49:39.304Z,99212.22
2022-08-21T18:52:08.263Z,99211.63
2022-08-21T18:54:37.388Z,99224.41
2022-08-21T18:57:10.150Z,99230.09
2022-08-21T18:59:38.060Z,99223.19
2022-08-21T19:02:08.703Z,99219.75
2022-08-21T19:04:44.197Z,99226.16
2022-08-21T19:07:23.706Z,99222.75
2022-08-21T19:10:21.097Z,99212.31
2022-08-21T19:12:39.189Z,99215.97
2022-08-21T19:15:08.513Z,99218.00
2022-08-21T19:17:36.172Z,99228.19
2022-08-21T19:20:25.373Z,99236.69
2022-08-21T19:22:53.626Z,99230.22
2022-08-21T19:28:11.936Z,99237.00
2022-08-21T19:30:41.560Z,99237.63
2022-08-21T19:33:10.752Z,99226.56
2022-08-21T19:35:50.975Z,99235.47
2022-08-21T19:38:20.300Z,99233.91
2022-08-21T19:40:47.561Z,99235.38
2022-08-21T19:43:14.555Z,99230.28
2022-08-21T19:45:41.546Z,99234.97
2022-08-21T19:48:09.270Z,99237.03
2022-08-21T19:50:37.181Z,99234.19
2022-08-21T19:53:04.989Z,99239.88
2022-08-21T19:55:42.981Z,99234.22
2022-08-21T19:58:22.755Z,99239.59
2022-08-21T20:00:49.619Z,99239.19
2022-08-21T20:03:18.131Z,99239.47
2022-08-21T20:05:48.149Z,99235.53
2022-08-21T20:08:20.515Z,99234.94
2022-08-21T20:10:47.728Z,99232.81
2022-08-21T20:13:23.567Z,99230.59
2022-08-21T20:15:51.044Z,99231.56
2022-08-21T20:18:18.903Z,99235.09
2022-08-21T20:20:47.643Z,99234.41
2022-08-21T20:23:15.906Z,99222.97
2022-08-21T20:25:44.484Z,99231.44
2022-08-21T20:28:11.386Z,99230.00
2022-08-21T20:30:38.523Z,99237.66
2022-08-21T20:33:14.362Z,99226.06
2022-08-21T20:35:43.672Z,99234.13
2022-08-21T20:38:10.480Z,99227.19
2022-08-21T20:40:41.392Z,99222.09
2022-08-21T20:45:57.545Z,99226.06
2022-08-21T20:48:28.522Z,99224.91
2022-08-21T20:51:05.457Z,99232.28
2022-08-21T20:53:51.228Z,99233.41
2022-08-21T20:56:43.817Z,99230.84
2022-08-21T20:59:22.138Z,99238.06
2022-08-21T21:01:52.274Z,99232.84
2022-08-21T21:04:34.767Z,99231.41
2022-08-21T21:07:02.742Z,99233.78
2022-08-21T21:09:42.888Z,99239.00
2022-08-21T21:12:19.101Z,99235.63
2022-08-21T21:14:59.624Z,99234.19
2022-08-21T21:17:42.551Z,99232.22
2022-08-21T21:20:16.711Z,99240.13
2022-08-21T21:22:58.604Z,99243.94
2022-08-21T21:25:40.633Z,99247.59
2022-08-21T21:28:13.134Z,99244.22
2022-08-21T21:33:33.260Z,99243.06
2022-08-21T21:36:12.472Z,99254.22
2022-08-21T21:38:52.731Z,99250.38
2022-08-21T21:41:25.392Z,99242.16
2022-08-21T21:44:01.349Z,99244.78
2022-08-21T21:47:16.834Z,99236.56
2022-08-21T21:50:08.659Z,99228.94
2022-08-21T21:53:13.163Z,99230.50
2022-08-21T21:56:02.877Z,99224.41
2022-08-21T21:58:35.981Z,99222.84
2022-08-21T22:01:21.356Z,99231.16
2022-08-21T22:04:03.805Z,99225.50
2022-08-21T22:07:04.806Z,99229.84
2022-08-21T22:09:46.801Z,99226.34
2022-08-21T22:15:26.391Z,99225.50
2022-08-21T22:18:21.255Z,99221.81
2022-08-21T22:20:57.047Z,99221.22
2022-08-21T22:23:30.186Z,99213.19
2022-08-21T22:26:05.295Z,99206.38
2022-08-21T22:28:39.473Z,99206.47
2022-08-21T22:31:26.368Z,99211.84
2022-08-21T22:34:22.733Z,99213.94
2022-08-21T22:36:59.649Z,99214.59
2022-08-21T22:42:25.929Z,99208.22
2022-08-21T22:45:09.398Z,99204.97
2022-08-21T22:47:44.803Z,99209.75
2022-08-21T22:50:28.204Z,99203.06
2022-08-21T22:52:58.531Z,99205.31
2022-08-21T22:55:53.734Z,99206.53
2022-08-21T22:58:53.711Z,99198.88
2022-08-21T23:01:21.006Z,99203.91
2022-08-21T23:03:54.270Z,99199.09
2022-08-21T23:06:52.697Z,99193.41
2022-08-21T23:09:28.372Z,99196.59
2022-08-21T23:11:58.280Z,99193.47
2022-08-21T23:14:25.921Z,99195.56
2022-08-21T23:17:10.271Z,99197.78
2022-08-21T23:20:04.742Z,99190.13
2022-08-21T23:23:14.644Z,99192.22
2022-08-21T23:26:12.386Z,99197.66
2022-08-21T23:29:10.688Z,99205.81
2022-08-21T23:32:15.916Z,99205.06
2022-08-21T23:35:08.006Z,99204.63
2022-08-21T23:37:51.601Z,99200.09
2022-08-21T23:40:23.209Z,99203.53
2022-08-21T23:43:05.388Z,99209.72
2022-08-21T23:46:13.687Z,99198.75
2022-08-21T23:49:18.653Z,99203.03
2022-08-21T23:51:57.484Z,99210.97
2022-08-21T23:54:46.191Z,99208.16
